Time;durP1;ratioP1;P1;durP2;ratioP2;P2;SDS_P1;SDS_P2;PMS_P1;PMS_P2;Temp;Humidity;BMP_temperature;BMP_pressure;BME280_temperature;BME280_humidity;BME280_pressure;Samples;Min_cycle;Max_cycle;Signal;HPM_P1;HPM_P2
2021/11/10 00:00:58;;;;;;;2.00;1.88;;;19.40;47.00;;;;;;5074355;28;20151;-41
2021/11/10 00:03:25;;;;;;;3.33;1.77;;;19.40;47.00;;;;;;5077508;28;20033;-41
2021/11/10 00:05:52;;;;;;;4.45;1.45;;;19.40;47.30;;;;;;5082701;28;20052;-41
2021/11/10 00:08:19;;;;;;;4.10;1.80;;;19.40;47.30;;;;;;5079581;28;20036;-41
2021/11/10 00:10:46;;;;;;;8.80;2.75;;;19.40;47.30;;;;;;5074021;28;20041;-42
2021/11/10 00:13:19;;;;;;;5.40;1.33;;;19.40;47.30;;;;;;5072948;28;20067;-41
2021/11/10 00:15:47;;;;;;;3.97;1.80;;;19.40;47.30;;;;;;5079007;28;20053;-41
2021/11/10 00:18:16;;;;;;;2.22;1.17;;;19.40;47.60;;;;;;5076362;28;20036;-41
2021/11/10 00:20:44;;;;;;;3.75;2.10;;;19.40;47.60;;;;;;5074181;28;20059;-41
2021/11/10 00:23:11;;;;;;;3.03;1.83;;;19.40;47.70;;;;;;5071436;28;20036;-41
2021/11/10 00:25:38;;;;;;;2.35;1.70;;;19.40;47.70;;;;;;5071413;28;20044;-41
2021/11/10 00:28:06;;;;;;;7.35;2.38;;;19.30;47.70;;;;;;5077009;28;20457;-41
2021/11/10 00:30:34;;;;;;;6.53;2.25;;;19.30;47.60;;;;;;5079575;28;20546;-41
2021/11/10 00:33:01;;;;;;;2.17;1.55;;;19.30;47.60;;;;;;5082079;28;20572;-41
2021/11/10 00:35:30;;;;;;;5.00;2.25;;;19.30;47.80;;;;;;5077239;28;20113;-42
2021/11/10 00:37:57;;;;;;;4.35;2.20;;;19.30;47.70;;;;;;5072821;28;20528;-41
2021/11/10 00:40:25;;;;;;;2.25;1.30;;;19.30;47.70;;;;;;5076924;28;20048;-41
2021/11/10 00:42:53;;;;;;;7.03;2.15;;;19.30;48.30;;;;;;5071914;28;20072;-41
2021/11/10 00:45:20;;;;;;;4.90;1.23;;;19.30;47.70;;;;;;5077259;28;20033;-41
2021/11/10 00:47:47;;;;;;;3.63;1.75;;;19.30;47.80;;;;;;5082469;28;20047;-41
2021/11/10 00:50:15;;;;;;;2.80;1.50;;;19.20;47.70;;;;;;5077721;28;20047;-41
2021/11/10 00:52:44;;;;;;;4.60;1.52;;;19.20;47.70;;;;;;5068448;28;20047;-41
2021/11/10 00:55:12;;;;;;;3.20;1.73;;;19.30;47.80;;;;;;5076161;28;20045;-41
2021/11/10 00:57:39;;;;;;;2.60;1.45;;;19.20;47.70;;;;;;5076879;28;20048;-41
2021/11/10 01:00:08;;;;;;;2.08;1.23;;;19.20;47.70;;;;;;5080868;28;20832;-41
2021/11/10 01:02:36;;;;;;;4.45;0.98;;;19.20;47.70;;;;;;5078817;28;20044;-41
2021/11/10 01:05:03;;;;;;;2.38;1.05;;;19.20;47.70;;;;;;5072329;28;20150;-41
2021/11/10 01:07:30;;;;;;;2.30;1.00;;;19.20;47.60;;;;;;5074426;28;20041;-41
2021/11/10 01:10:01;;;;;;;6.22;1.80;;;19.20;47.70;;;;;;5071070;28;20044;-41
2021/11/10 01:12:29;;;;;;;2.60;1.40;;;19.10;47.60;;;;;;5073472;28;20037;-41
2021/11/10 01:14:57;;;;;;;3.88;1.25;;;19.20;47.70;;;;;;5074366;28;20044;-42
2021/11/10 01:17:25;;;;;;;3.38;1.05;;;19.10;47.80;;;;;;5081475;28;20048;-41
2021/11/10 01:19:52;;;;;;;2.35;1.83;;;19.10;47.80;;;;;;5068862;28;20084;-41
2021/11/10 01:22:19;;;;;;;2.22;1.70;;;19.10;47.70;;;;;;5075580;28;20040;-41
2021/11/10 01:24:46;;;;;;;3.35;1.55;;;19.10;47.80;;;;;;5076445;28;20136;-41
2021/11/10 01:27:15;;;;;;;3.35;1.17;;;19.10;47.80;;;;;;5077037;28;20037;-42
2021/11/10 01:29:46;;;;;;;2.08;1.23;;;19.10;47.80;;;;;;5080782;28;20051;-41
2021/11/10 01:32:13;;;;;;;3.95;1.52;;;19.10;47.80;;;;;;5074850;28;20040;-42
2021/11/10 01:34:41;;;;;;;2.05;1.15;;;19.10;47.80;;;;;;5069233;28;20108;-42
2021/11/10 01:37:13;;;;;;;1.85;1.08;;;19.10;47.80;;;;;;5075606;28;20075;-42
2021/11/10 01:39:41;;;;;;;3.50;1.17;;;19.10;47.80;;;;;;5076247;28;20044;-41
2021/11/10 01:42:11;;;;;;;1.60;0.90;;;19.10;47.90;;;;;;5078004;28;20041;-41
2021/11/10 01:44:45;;;;;;;5.75;1.08;;;19.00;47.90;;;;;;5075695;28;20064;-42
2021/11/10 01:47:14;;;;;;;2.67;1.55;;;19.00;47.90;;;;;;5072937;28;20127;-42
2021/11/10 01:49:44;;;;;;;3.35;1.65;;;19.00;47.80;;;;;;5070907;28;20044;-41
2021/11/10 01:52:13;;;;;;;3.58;0.90;;;19.00;47.80;;;;;;5066647;28;20534;-42
2021/11/10 01:54:41;;;;;;;1.23;1.13;;;19.00;47.80;;;;;;5077322;28;20041;-42
2021/11/10 01:57:13;;;;;;;2.50;0.80;;;19.00;47.90;;;;;;5085956;28;20048;-41
2021/11/10 01:59:44;;;;;;;1.83;1.38;;;19.00;47.90;;;;;;5078504;28;20116;-42
2021/11/10 02:02:20;;;;;;;2.97;1.45;;;19.00;47.90;;;;;;5069972;28;20093;-42
2021/11/10 02:04:52;;;;;;;3.45;1.23;;;19.00;47.90;;;;;;5073135;28;20040;-42
2021/11/10 02:07:21;;;;;;;1.65;0.85;;;19.00;47.90;;;;;;5073367;28;20492;-42
2021/11/10 02:09:50;;;;;;;3.72;0.88;;;19.00;47.80;;;;;;5070003;28;20052;-42
2021/11/10 02:12:18;;;;;;;2.25;1.42;;;19.00;47.90;;;;;;5053752;28;20060;-42
2021/11/10 02:14:50;;;;;;;1.05;0.82;;;19.00;47.90;;;;;;5092405;28;20089;-42
2021/11/10 02:17:22;;;;;;;2.47;1.33;;;18.90;47.80;;;;;;5082849;28;20041;-42
2021/11/10 02:19:53;;;;;;;4.10;1.27;;;18.90;47.90;;;;;;5077247;28;20040;-42
2021/11/10 02:22:28;;;;;;;4.88;1.38;;;18.90;48.00;;;;;;5076052;28;20071;-41
2021/11/10 02:24:56;;;;;;;2.95;0.88;;;18.90;48.00;;;;;;5071776;28;20135;-40
2021/11/10 02:27:27;;;;;;;2.28;0.70;;;18.90;48.10;;;;;;5092277;28;20045;-40
2021/11/10 02:29:54;;;;;;;2.13;0.80;;;18.90;48.00;;;;;;5079844;28;20051;-40
2021/11/10 02:32:22;;;;;;;4.20;1.98;;;18.90;48.10;;;;;;5094466;28;20044;-40
2021/11/10 02:34:49;;;;;;;2.28;1.40;;;18.90;48.10;;;;;;5071756;28;20127;-40
2021/11/10 02:37:20;;;;;;;4.00;1.52;;;18.90;48.10;;;;;;5074104;28;20041;-40
2021/11/10 02:39:50;;;;;;;3.47;1.17;;;18.90;48.10;;;;;;5071474;28;20134;-40
2021/11/10 02:42:18;;;;;;;0.68;0.50;;;18.90;48.00;;;;;;5073327;28;20036;-40
2021/11/10 02:44:48;;;;;;;4.70;0.77;;;18.90;48.00;;;;;;5082929;28;20048;-40
2021/11/10 02:47:16;;;;;;;2.92;1.10;;;18.90;48.10;;;;;;5076771;28;20419;-40
2021/11/10 02:49:44;;;;;;;3.92;0.60;;;18.90;48.20;;;;;;5069177;28;20722;-41
2021/11/10 02:52:13;;;;;;;3.53;1.40;;;18.90;48.10;;;;;;5075145;28;20148;-41
2021/11/10 02:54:43;;;;;;;0.93;0.32;;;18.80;48.00;;;;;;5086100;28;20040;-41
2021/11/10 02:57:11;;;;;;;2.00;0.55;;;18.80;48.00;;;;;;5075161;28;20119;-41
2021/11/10 02:59:39;;;;;;;2.75;0.85;;;18.80;47.90;;;;;;5072815;28;20047;-41
2021/11/10 03:02:09;;;;;;;4.22;1.48;;;18.80;48.00;;;;;;5069377;28;20500;-40
2021/11/10 03:04:37;;;;;;;2.00;1.10;;;18.80;48.00;;;;;;5072274;28;20132;-40
2021/11/10 03:07:05;;;;;;;4.47;0.95;;;18.80;48.00;;;;;;5074285;28;20040;-40
2021/11/10 03:09:35;;;;;;;0.95;0.60;;;18.80;48.00;;;;;;5077921;28;20064;-41
2021/11/10 03:12:11;;;;;;;;;;;18.80;48.10;;;;;;5074573;28;20159;-41
2021/11/10 03:14:40;;;;;;;2.20;0.82;;;18.80;48.10;;;;;;5080197;28;20007;-41
2021/11/10 03:17:10;;;;;;;1.42;0.63;;;18.70;48.10;;;;;;5069727;28;20526;-41
2021/11/10 03:19:38;;;;;;;2.15;0.57;;;18.70;48.10;;;;;;5078605;28;20040;-41
2021/11/10 03:22:07;;;;;;;1.05;0.52;;;18.70;48.10;;;;;;5077988;28;20040;-41
2021/11/10 03:24:36;;;;;;;3.65;0.70;;;18.70;48.10;;;;;;5042808;28;20402;-40
2021/11/10 03:27:06;;;;;;;5.88;0.80;;;18.70;48.10;;;;;;5082061;28;20052;-41
2021/11/10 03:29:36;;;;;;;0.93;0.88;;;18.70;48.10;;;;;;5078219;28;20076;-41
2021/11/10 03:32:08;;;;;;;0.73;0.40;;;18.70;48.00;;;;;;5083348;28;20047;-41
2021/11/10 03:34:35;;;;;;;1.55;0.63;;;18.70;48.10;;;;;;5077337;28;20048;-40
2021/11/10 03:37:03;;;;;;;3.80;0.85;;;18.70;48.10;;;;;;5077838;28;20234;-40
2021/11/10 03:39:32;;;;;;;4.40;0.82;;;18.70;48.10;;;;;;5079914;28;20124;-40
2021/11/10 03:41:59;;;;;;;2.63;0.60;;;18.70;48.00;;;;;;5083062;28;20048;-41
2021/11/10 03:44:27;;;;;;;3.40;0.95;;;18.70;48.00;;;;;;5074102;28;20096;-41
2021/11/10 03:46:58;;;;;;;1.60;0.70;;;18.70;48.10;;;;;;5070630;28;20051;-41
2021/11/10 03:49:25;;;;;;;1.30;0.80;;;18.70;48.00;;;;;;5077529;28;20044;-40
2021/11/10 03:51:53;;;;;;;2.83;1.05;;;18.70;48.10;;;;;;5079966;28;20044;-41
2021/11/10 03:54:22;;;;;;;2.50;0.88;;;18.70;48.10;;;;;;5056210;28;20579;-41
2021/11/10 03:56:49;;;;;;;1.52;0.82;;;18.60;48.00;;;;;;5085968;28;20128;-41
2021/11/10 03:59:16;;;;;;;0.47;0.47;;;18.60;48.00;;;;;;5068932;28;20040;-41
2021/11/10 04:01:45;;;;;;;2.28;1.10;;;18.60;48.10;;;;;;5075710;28;20389;-41
2021/11/10 04:04:13;;;;;;;0.82;0.75;;;18.60;48.10;;;;;;5076555;28;20044;-41
2021/11/10 04:06:41;;;;;;;2.90;0.70;;;18.60;48.10;;;;;;5078968;28;20036;-41
2021/11/10 04:09:09;;;;;;;1.83;0.80;;;18.60;48.10;;;;;;5076753;28;20049;-41
2021/11/10 04:11:36;;;;;;;1.42;0.95;;;18.60;48.10;;;;;;5088151;28;20040;-41
2021/11/10 04:14:07;;;;;;;1.63;0.90;;;18.60;48.10;;;;;;5073228;28;20055;-41
2021/11/10 04:16:38;;;;;;;1.90;0.47;;;18.60;48.10;;;;;;5073850;28;20448;-41
2021/11/10 04:19:06;;;;;;;6.50;1.83;;;18.60;48.10;;;;;;5077212;28;20047;-41
2021/11/10 04:21:35;;;;;;;1.02;0.93;;;18.60;48.10;;;;;;5081522;28;20071;-41
2021/11/10 04:24:05;;;;;;;2.88;0.98;;;18.60;48.10;;;;;;5076641;28;20040;-41
2021/11/10 04:26:37;;;;;;;3.38;0.88;;;18.60;48.10;;;;;;5089984;28;20032;-41
2021/11/10 04:29:10;;;;;;;3.88;1.63;;;18.60;48.10;;;;;;5075555;28;20079;-42
2021/11/10 04:31:38;;;;;;;1.40;1.02;;;18.60;48.10;;;;;;5076150;28;20044;-40
2021/11/10 04:34:05;;;;;;;3.08;2.75;;;18.60;48.20;;;;;;5076219;28;20040;-41
2021/11/10 04:36:35;;;;;;;3.70;1.70;;;18.60;48.10;;;;;;5078143;28;20047;-41
2021/11/10 04:39:04;;;;;;;3.45;1.20;;;18.60;48.10;;;;;;5077817;28;20047;-41
2021/11/10 04:41:33;;;;;;;1.52;0.75;;;18.60;48.10;;;;;;5080446;28;20048;-41
2021/11/10 04:44:02;;;;;;;2.05;1.15;;;18.60;48.10;;;;;;5075909;28;20116;-40
2021/11/10 04:46:33;;;;;;;4.70;1.80;;;18.50;48.10;;;;;;5077949;28;20041;-41
2021/11/10 04:49:01;;;;;;;2.97;1.13;;;18.50;48.10;;;;;;5078831;28;20044;-41
2021/11/10 04:51:29;;;;;;;3.60;1.05;;;18.50;48.10;;;;;;5077231;28;20106;-41
2021/11/10 04:53:58;;;;;;;2.50;1.55;;;18.50;48.20;;;;;;5077405;28;20123;-41
2021/11/10 04:56:26;;;;;;;4.38;1.65;;;18.50;48.10;;;;;;5078687;28;20048;-41
2021/11/10 04:58:54;;;;;;;2.28;0.45;;;18.50;48.20;;;;;;5072498;28;20139;-41
2021/11/10 05:01:26;;;;;;;1.92;0.98;;;18.50;48.20;;;;;;5075985;28;20047;-41
2021/11/10 05:03:57;;;;;;;2.22;1.52;;;18.50;48.20;;;;;;5080711;28;20093;-41
2021/11/10 05:06:25;;;;;;;4.05;1.50;;;18.50;48.20;;;;;;5077918;28;20040;-40
2021/11/10 05:08:54;;;;;;;3.30;1.88;;;18.50;48.20;;;;;;5070793;28;20444;-41
2021/11/10 05:11:24;;;;;;;4.47;1.17;;;18.50;48.20;;;;;;5084970;28;20059;-41
2021/11/10 05:13:52;;;;;;;2.70;1.20;;;18.50;48.10;;;;;;5066018;28;20032;-41
2021/11/10 05:16:20;;;;;;;3.25;1.95;;;18.50;48.10;;;;;;5065839;28;20044;-41
2021/11/10 05:18:50;;;;;;;5.90;1.02;;;18.50;48.20;;;;;;5068955;28;20078;-41
2021/11/10 05:21:20;;;;;;;2.75;1.92;;;18.50;48.20;;;;;;5078881;28;20124;-41
2021/11/10 05:23:47;;;;;;;2.70;1.42;;;18.50;48.20;;;;;;5114371;27;20055;-41
2021/11/10 05:26:14;;;;;;;5.40;2.35;;;18.50;48.20;;;;;;5077209;28;20040;-41
2021/11/10 05:28:43;;;;;;;4.30;1.73;;;18.50;48.20;;;;;;5076625;28;20036;-41
2021/11/10 05:31:10;;;;;;;1.80;1.33;;;18.50;48.20;;;;;;5070425;28;20044;-41
2021/11/10 05:33:37;;;;;;;2.63;0.93;;;18.50;48.20;;;;;;5080938;28;20039;-41
2021/11/10 05:36:05;;;;;;;10.98;1.40;;;18.40;48.20;;;;;;5082176;28;20349;-41
2021/11/10 05:38:32;;;;;;;2.45;1.92;;;18.40;48.20;;;;;;5080423;28;20143;-41
2021/11/10 05:40:59;;;;;;;2.72;1.88;;;18.40;48.20;;;;;;5072598;28;20056;-41
2021/11/10 05:43:26;;;;;;;2.80;1.55;;;18.40;48.20;;;;;;5071829;28;20584;-41
2021/11/10 05:45:55;;;;;;;2.17;0.95;;;18.40;48.20;;;;;;5064632;28;20041;-41
2021/11/10 05:48:22;;;;;;;1.13;0.95;;;18.40;48.10;;;;;;5069065;28;20072;-41
2021/11/10 05:50:49;;;;;;;1.83;1.02;;;18.40;48.10;;;;;;5081624;28;20397;-41
2021/11/10 05:53:17;;;;;;;6.93;2.00;;;18.40;48.10;;;;;;5077538;28;20127;-41
2021/11/10 05:55:45;;;;;;;3.53;1.75;;;18.40;48.10;;;;;;5074902;28;20040;-40
2021/11/10 05:58:13;;;;;;;3.92;2.10;;;18.40;48.10;;;;;;5072802;28;20051;-41
2021/11/10 06:00:40;;;;;;;3.13;1.52;;;18.40;48.20;;;;;;5068157;28;20040;-40
2021/11/10 06:03:08;;;;;;;2.55;1.70;;;18.40;48.20;;;;;;5078976;28;20047;-42
2021/11/10 06:05:36;;;;;;;5.07;1.40;;;18.40;48.20;;;;;;5080263;28;20440;-41
2021/11/10 06:08:03;;;;;;;5.88;1.55;;;18.40;48.20;;;;;;5072903;28;20492;-41
2021/11/10 06:10:30;;;;;;;4.78;1.48;;;18.40;48.20;;;;;;5074151;28;20139;-41
2021/11/10 06:12:57;;;;;;;4.10;1.73;;;18.40;48.20;;;;;;5072196;28;20044;-41
2021/11/10 06:15:24;;;;;;;2.55;1.42;;;18.40;48.20;;;;;;5078498;28;20035;-41
2021/11/10 06:17:51;;;;;;;2.30;0.77;;;18.40;48.20;;;;;;5067737;28;20592;-41
2021/11/10 06:20:20;;;;;;;3.22;1.52;;;18.40;48.10;;;;;;5074168;28;20075;-40
2021/11/10 06:22:47;;;;;;;6.88;1.33;;;18.40;48.20;;;;;;5069538;28;20447;-40
2021/11/10 06:25:21;;;;;;;4.07;1.30;;;18.40;48.20;;;;;;5071810;28;20045;-40
2021/11/10 06:27:48;;;;;;;1.70;0.98;;;18.30;48.10;;;;;;5074243;28;20044;-40
2021/11/10 06:30:15;;;;;;;1.67;1.33;;;18.40;48.80;;;;;;5076299;28;20045;-40
2021/11/10 06:32:45;;;;;;;2.17;1.67;;;18.30;48.10;;;;;;5081425;28;20070;-40
2021/11/10 06:35:13;;;;;;;3.08;2.38;;;18.30;48.20;;;;;;5066703;28;20044;-40
2021/11/10 06:37:42;;;;;;;2.50;1.58;;;18.30;48.80;;;;;;5068826;28;20119;-41
2021/11/10 06:40:11;;;;;;;2.83;1.85;;;18.40;48.20;;;;;;5070039;28;20504;-41
2021/11/10 06:42:38;;;;;;;3.22;1.63;;;18.40;48.30;;;;;;5077350;28;20032;-41
2021/11/10 06:45:07;;;;;;;3.30;1.13;;;18.30;48.20;;;;;;5076822;28;20048;-40
2021/11/10 06:47:34;;;;;;;2.17;0.90;;;18.30;48.20;;;;;;5079988;28;20617;-40
2021/11/10 06:50:03;;;;;;;2.03;1.50;;;18.30;48.20;;;;;;5071879;28;20416;-40
2021/11/10 06:52:30;;;;;;;2.88;1.48;;;18.30;48.20;;;;;;5073972;28;20032;-40
2021/11/10 06:54:58;;;;;;;3.72;1.45;;;18.30;48.20;;;;;;5077045;28;20765;-40
2021/11/10 06:57:25;;;;;;;2.72;1.42;;;18.30;48.20;;;;;;5074970;28;20041;-40
2021/11/10 06:59:53;;;;;;;3.17;1.85;;;18.30;48.20;;;;;;5075579;28;20036;-39
2021/11/10 07:02:20;;;;;;;3.53;1.10;;;18.30;48.30;;;;;;5073675;28;20044;-40
2021/11/10 07:04:47;;;;;;;7.38;3.35;;;18.30;48.40;;;;;;5061676;28;20044;-41
2021/11/10 07:07:14;;;;;;;43.67;20.75;;;18.30;48.50;;;;;;5061483;28;20033;-39
2021/11/10 07:09:42;;;;;;;14.40;7.13;;;18.20;49.70;;;;;;5063164;28;20043;-39
2021/11/10 07:12:11;;;;;;;12.27;5.55;;;18.20;49.60;;;;;;5078030;28;20040;-40
2021/11/10 07:14:38;;;;;;;13.15;6.53;;;18.20;49.50;;;;;;5067701;28;20055;-39
2021/11/10 07:17:06;;;;;;;14.65;6.07;;;18.20;49.50;;;;;;5067443;28;20054;-41
2021/11/10 07:19:34;;;;;;;10.88;6.18;;;18.20;49.50;;;;;;5071552;28;20500;-38
2021/11/10 07:22:01;;;;;;;9.95;5.05;;;18.20;49.50;;;;;;5067940;28;20513;-40
2021/11/10 07:24:29;;;;;;;14.45;5.32;;;18.20;49.50;;;;;;5065607;28;20044;-38
2021/11/10 07:26:56;;;;;;;11.93;6.28;;;18.20;49.50;;;;;;5065113;28;20553;-38
2021/11/10 07:29:26;;;;;;;6.47;3.50;;;18.20;49.50;;;;;;5072451;28;20032;-40
2021/11/10 07:31:53;;;;;;;6.10;2.97;;;18.10;49.40;;;;;;5064202;28;20078;-40
2021/11/10 07:34:21;;;;;;;7.72;3.83;;;18.20;49.50;;;;;;5070131;28;20186;-40
2021/11/10 07:36:48;;;;;;;6.80;4.40;;;18.10;49.40;;;;;;5067118;28;20044;-39
2021/11/10 07:39:15;;;;;;;10.95;3.70;;;18.10;49.40;;;;;;5073406;28;20497;-39
2021/11/10 07:41:42;;;;;;;7.00;3.53;;;18.10;49.50;;;;;;5066140;28;20056;-40
2021/11/10 07:44:10;;;;;;;7.32;3.08;;;18.10;49.40;;;;;;5068066;28;20040;-39
2021/11/10 07:46:39;;;;;;;4.82;2.58;;;18.10;49.50;;;;;;5061516;28;20056;-39
2021/11/10 07:49:06;;;;;;;5.53;3.35;;;18.10;49.40;;;;;;5061537;28;20076;-40
2021/11/10 07:51:33;;;;;;;6.18;3.08;;;18.10;49.40;;;;;;5066060;28;20519;-39
2021/11/10 07:54:01;;;;;;;8.75;2.65;;;18.10;49.40;;;;;;5075077;28;20036;-39
2021/11/10 07:56:28;;;;;;;6.30;3.15;;;18.00;49.40;;;;;;5068119;28;20055;-40
2021/11/10 07:58:55;;;;;;;5.60;3.15;;;18.10;49.40;;;;;;5066768;28;20044;-40
2021/11/10 08:01:22;;;;;;;4.85;3.17;;;18.10;49.40;;;;;;5065195;28;20048;-39
2021/11/10 08:03:50;;;;;;;9.40;3.88;;;18.10;49.40;;;;;;5065051;28;20431;-39
2021/11/10 08:06:17;;;;;;;3.17;2.22;;;18.10;49.50;;;;;;5068276;28;20075;-39
2021/11/10 08:08:44;;;;;;;4.45;2.63;;;18.10;49.40;;;;;;5072035;28;20044;-39
2021/11/10 08:11:12;;;;;;;4.97;2.95;;;18.10;49.40;;;;;;5068699;28;20146;-39
2021/11/10 08:13:39;;;;;;;3.92;3.03;;;18.10;49.50;;;;;;5069614;28;20133;-39
2021/11/10 08:16:06;;;;;;;6.72;2.05;;;18.10;49.40;;;;;;5064547;28;20731;-39
2021/11/10 08:18:33;;;;;;;4.80;2.28;;;18.10;49.40;;;;;;5069142;28;20047;-39
2021/11/10 08:21:01;;;;;;;1.95;1.75;;;18.10;49.40;;;;;;5067127;28;20044;-39
2021/11/10 08:23:29;;;;;;;6.38;3.55;;;18.10;49.40;;;;;;5071107;28;20119;-39
2021/11/10 08:25:57;;;;;;;4.18;2.85;;;18.10;49.30;;;;;;5064735;28;20106;-39
2021/11/10 08:28:26;;;;;;;3.42;2.65;;;18.10;49.30;;;;;;5071741;28;20416;-39
2021/11/10 08:30:53;;;;;;;3.25;2.22;;;18.10;49.30;;;;;;5072511;28;20618;-39
2021/11/10 08:33:21;;;;;;;8.68;2.53;;;18.10;49.30;;;;;;5066454;28;20068;-39
2021/11/10 08:35:49;;;;;;;4.57;1.95;;;18.10;49.30;;;;;;5074597;28;20167;-39
2021/11/10 08:38:18;;;;;;;5.57;2.85;;;18.10;49.30;;;;;;5073110;28;20040;-39
2021/11/10 08:40:46;;;;;;;3.75;2.15;;;18.10;49.30;;;;;;5069909;28;20047;-41
2021/11/10 08:43:14;;;;;;;2.92;2.22;;;18.10;49.90;;;;;;5067965;28;20044;-39
2021/11/10 08:45:44;;;;;;;3.78;2.28;;;18.10;49.30;;;;;;5067892;28;20140;-39
2021/11/10 08:48:11;;;;;;;7.18;3.15;;;18.10;49.40;;;;;;5068686;28;20135;-39
2021/11/10 08:50:41;;;;;;;2.30;2.10;;;18.20;49.50;;;;;;5068119;28;20066;-39
2021/11/10 08:53:09;;;;;;;4.85;2.33;;;18.10;49.50;;;;;;5069770;28;20048;-39
2021/11/10 08:55:38;;;;;;;4.85;2.95;;;18.20;49.50;;;;;;5078856;28;20542;-40
2021/11/10 08:58:05;;;;;;;2.60;1.92;;;18.20;49.50;;;;;;5068227;28;20424;-39
2021/11/10 09:00:36;;;;;;;4.30;2.55;;;18.20;49.50;;;;;;5066909;28;20504;-39
2021/11/10 09:03:04;;;;;;;7.45;2.65;;;18.20;49.50;;;;;;5078982;28;20055;-39
2021/11/10 09:05:32;;;;;;;6.40;3.13;;;18.30;49.70;;;;;;5071298;28;20123;-39
2021/11/10 09:08:00;;;;;;;13.55;3.33;;;18.30;49.80;;;;;;5067489;28;20054;-39
2021/11/10 09:10:27;;;;;;;6.00;2.28;;;18.30;49.80;;;;;;5067762;28;20785;-40
2021/11/10 09:12:55;;;;;;;7.00;2.33;;;18.30;49.80;;;;;;5066319;28;20079;-39
2021/11/10 09:15:24;;;;;;;5.35;2.92;;;18.40;50.00;;;;;;5067167;28;20041;-40
2021/11/10 09:17:51;;;;;;;3.25;2.22;;;18.40;50.60;;;;;;5069538;28;20131;-39
2021/11/10 09:20:21;;;;;;;5.15;3.30;;;18.40;50.60;;;;;;5066845;28;20064;-40
2021/11/10 09:22:49;;;;;;;4.03;2.92;;;18.40;50.00;;;;;;5070954;28;20046;-40
2021/11/10 09:25:19;;;;;;;7.18;3.10;;;18.40;50.00;;;;;;5062001;28;20044;-39
2021/11/10 09:27:46;;;;;;;5.55;3.05;;;18.50;50.00;;;;;;5069774;28;20086;-40
2021/11/10 09:30:18;;;;;;;6.57;2.20;;;18.50;49.90;;;;;;5068140;28;20055;-39
2021/11/10 09:32:47;;;;;;;5.40;2.38;;;18.50;49.90;;;;;;5073806;28;20048;-40
2021/11/10 09:35:17;;;;;;;7.72;2.65;;;18.50;49.80;;;;;;5084423;28;20047;-39
2021/11/10 09:37:45;;;;;;;6.50;3.03;;;18.50;49.80;;;;;;5062204;28;20040;-39
2021/11/10 09:40:16;;;;;;;3.38;3.08;;;18.60;49.80;;;;;;5064999;28;20067;-39
2021/11/10 09:42:44;;;;;;;5.45;2.72;;;18.60;49.70;;;;;;5067850;28;20627;-39
2021/11/10 09:45:17;;;;;;;7.93;2.70;;;18.60;49.60;;;;;;5079143;28;20405;-39
2021/11/10 09:47:45;;;;;;;4.07;2.25;;;18.60;49.50;;;;;;5068234;28;20050;-40
2021/11/10 09:50:15;;;;;;;7.15;2.78;;;18.70;49.50;;;;;;5067620;28;20086;-39
2021/11/10 09:52:45;;;;;;;7.97;3.58;;;18.70;49.50;;;;;;5062219;28;20118;-40
2021/11/10 09:55:15;;;;;;;2.58;2.13;;;18.70;49.40;;;;;;5063817;28;20416;-40
2021/11/10 09:57:42;;;;;;;5.70;2.85;;;18.70;49.30;;;;;;5061817;28;20041;-40
2021/11/10 10:00:14;;;;;;;5.53;2.38;;;18.70;49.30;;;;;;5064063;28;20036;-40
2021/11/10 10:02:45;;;;;;;5.88;2.00;;;18.80;49.30;;;;;;5072773;28;20047;-39
2021/11/10 10:05:12;;;;;;;3.53;1.58;;;18.80;49.20;;;;;;5062149;28;20512;-40
2021/11/10 10:07:40;;;;;;;3.30;2.10;;;18.80;49.10;;;;;;5066589;28;20044;-40
2021/11/10 10:10:08;;;;;;;2.00;1.55;;;18.90;49.20;;;;;;5072795;28;20455;-40
2021/11/10 10:12:35;;;;;;;5.20;2.70;;;18.90;49.10;;;;;;5076271;28;20041;-39
2021/11/10 10:15:02;;;;;;;7.32;2.55;;;18.90;49.00;;;;;;5078231;28;20048;-39
2021/11/10 10:17:36;;;;;;;3.20;1.75;;;19.00;49.00;;;;;;5076528;28;20051;-39
2021/11/10 10:20:06;;;;;;;3.63;2.05;;;19.00;48.90;;;;;;5069806;28;20048;-39
2021/11/10 10:22:34;;;;;;;5.60;2.33;;;19.00;48.80;;;;;;5063210;28;20045;-39
2021/11/10 10:25:01;;;;;;;4.47;2.05;;;19.10;48.80;;;;;;5065474;28;20040;-39
2021/11/10 10:27:31;;;;;;;5.53;2.17;;;19.10;48.80;;;;;;5066558;28;20041;-41
2021/11/10 10:30:25;;;;;;;14.02;3.28;;;19.20;48.80;;;;;;5081489;28;20075;-42
2021/11/10 10:32:55;;;;;;;7.53;2.30;;;19.20;48.70;;;;;;5066709;28;20047;-42
2021/11/10 10:35:40;;;;;;;6.28;3.42;;;19.20;48.70;;;;;;5079729;28;20066;-46
2021/11/10 10:38:10;;;;;;;8.20;3.65;;;19.30;48.70;;;;;;5062509;28;20439;-42
2021/11/10 10:40:40;;;;;;;5.72;2.78;;;19.30;48.70;;;;;;5070696;28;20094;-42
2021/11/10 10:43:07;;;;;;;5.57;1.90;;;19.30;48.60;;;;;;5075247;28;20156;-42
2021/11/10 10:45:40;;;;;;;6.80;1.98;;;19.40;48.60;;;;;;5069690;28;20513;-42
2021/11/10 10:48:09;;;;;;;4.80;2.03;;;19.40;48.50;;;;;;5078223;28;20048;-42
2021/11/10 10:50:43;;;;;;;4.32;2.00;;;19.50;48.50;;;;;;5071174;28;20048;-42
2021/11/10 10:53:13;;;;;;;8.18;1.63;;;19.60;48.50;;;;;;5073007;28;20068;-42
2021/11/10 10:55:42;;;;;;;4.30;2.33;;;19.60;48.40;;;;;;5068698;28;20158;-43
2021/11/10 10:58:11;;;;;;;5.15;2.28;;;19.70;48.40;;;;;;5074531;28;20036;-42
2021/11/10 11:00:40;;;;;;;5.82;2.33;;;19.70;48.20;;;;;;5066522;28;20043;-42
2021/11/10 11:03:25;;;;;;;5.32;2.45;;;19.80;48.10;;;;;;5070142;28;20070;-42
2021/11/10 11:05:54;;;;;;;5.13;1.58;;;19.90;48.00;;;;;;5066211;28;20080;-42
2021/11/10 11:08:39;;;;;;;5.45;2.47;;;19.90;47.90;;;;;;5065836;28;20037;-42
2021/11/10 11:11:24;;;;;;;4.47;2.10;;;20.00;47.80;;;;;;5071405;28;20713;-43
2021/11/10 11:13:53;;;;;;;10.63;3.50;;;20.10;47.80;;;;;;5066271;28;20132;-42
2021/11/10 11:16:27;;;;;;;4.05;2.33;;;20.10;47.60;;;;;;5069871;28;20040;-42
2021/11/10 11:19:14;;;;;;;4.47;2.13;;;20.20;47.60;;;;;;5075779;28;20130;-43
2021/11/10 11:21:56;;;;;;;11.73;3.10;;;20.30;47.50;;;;;;5061928;28;20052;-42
2021/11/10 11:24:40;;;;;;;7.53;3.30;;;20.30;47.50;;;;;;5070134;28;20048;-43
2021/11/10 11:27:24;;;;;;;10.63;3.28;;;20.40;48.80;;;;;;5066115;28;20579;-41
2021/11/10 11:29:58;;;;;;;9.68;3.47;;;20.50;48.70;;;;;;5068426;28;20055;-42
2021/11/10 11:32:28;;;;;;;5.30;3.28;;;20.50;48.40;;;;;;5073486;28;20536;-42
2021/11/10 11:34:59;;;;;;;15.38;4.10;;;20.60;48.30;;;;;;5072479;28;20052;-42
2021/11/10 11:37:28;;;;;;;13.27;3.67;;;20.70;50.30;;;;;;5069109;28;20041;-43
2021/11/10 11:39:57;;;;;;;12.65;3.50;;;20.70;50.90;;;;;;5078088;28;20489;-42
2021/11/10 11:42:26;;;;;;;8.65;3.63;;;20.80;51.40;;;;;;5077663;28;20177;-42
2021/11/10 11:44:55;;;;;;;12.65;4.80;;;20.90;52.10;;;;;;5075447;28;20128;-43
2021/11/10 11:47:23;;;;;;;8.95;3.85;;;20.90;51.30;;;;;;5079092;28;20426;-42
2021/11/10 11:49:51;;;;;;;12.70;4.45;;;21.00;51.20;;;;;;5069123;28;20037;-42
2021/11/10 11:52:27;;;;;;;15.23;5.60;;;21.00;51.00;;;;;;5078013;28;20132;-42
2021/11/10 11:54:58;;;;;;;10.35;4.18;;;21.10;50.90;;;;;;5079624;28;20163;-42
2021/11/10 11:57:26;;;;;;;16.98;4.72;;;21.10;50.70;;;;;;5080995;28;20043;-42
2021/11/10 11:59:57;;;;;;;6.72;2.88;;;21.10;50.50;;;;;;5081948;28;20051;-42
2021/11/10 12:02:27;;;;;;;15.73;3.90;;;21.20;50.40;;;;;;5080924;28;20040;-42
2021/11/10 12:04:56;;;;;;;10.13;3.90;;;21.20;50.20;;;;;;5078677;28;20068;-42
2021/11/10 12:07:54;;;;;;;14.05;4.32;;;21.30;50.00;;;;;;5076015;28;20032;-42
2021/11/10 12:10:46;;;;;;;12.63;4.43;;;21.40;49.80;;;;;;5050613;28;20060;-42
2021/11/10 12:13:21;;;;;;;17.58;4.72;;;21.40;49.60;;;;;;5053525;28;20155;-43
2021/11/10 12:16:21;;;;;;;9.65;4.25;;;21.40;49.50;;;;;;5042835;28;20099;-42
2021/11/10 12:18:57;;;;;;;13.00;4.00;;;21.40;49.20;;;;;;5052502;28;20047;-42
2021/11/10 12:21:33;;;;;;;8.75;4.60;;;21.40;49.10;;;;;;5056498;28;20053;-42
2021/11/10 12:24:08;;;;;;;8.98;3.97;;;21.50;49.00;;;;;;5057498;28;20094;-42
2021/11/10 12:27:21;;;;;;;12.77;4.57;;;21.50;48.80;;;;;;5043940;28;20132;-43
2021/11/10 12:30:16;;;;;;;11.45;5.90;;;21.50;48.70;;;;;;5049108;28;20044;-45
2021/11/10 12:32:55;;;;;;;12.80;5.22;;;21.60;48.90;;;;;;5056579;28;20098;-43
2021/11/10 12:35:27;;;;;;;19.88;6.70;;;21.60;49.20;;;;;;5056355;28;20048;-44
2021/11/10 12:37:56;;;;;;;26.58;6.13;;;21.60;49.40;;;;;;5049318;28;20052;-42
2021/11/10 12:40:26;;;;;;;16.70;5.70;;;21.70;49.80;;;;;;5036133;28;20569;-43
2021/11/10 12:42:57;;;;;;;22.38;6.82;;;21.70;50.20;;;;;;5050768;28;20053;-42
2021/11/10 12:45:30;;;;;;;27.80;6.80;;;21.70;50.10;;;;;;5062462;28;20086;-41
2021/11/10 12:47:59;;;;;;;20.85;5.97;;;21.80;50.00;;;;;;5078531;28;20140;-42
2021/11/10 12:50:34;;;;;;;17.98;6.40;;;21.80;49.90;;;;;;5074268;28;20712;-42
2021/11/10 12:53:04;;;;;;;14.35;5.82;;;21.80;49.70;;;;;;5077517;28;20500;-42
2021/11/10 12:55:33;;;;;;;29.23;6.70;;;21.90;49.70;;;;;;5075110;28;20117;-43
2021/11/10 12:58:15;;;;;;;12.55;6.05;;;21.90;49.60;;;;;;5077688;28;20050;-43